Time;durP1;ratioP1;P1;durP2;ratioP2;P2;SDS_P1;SDS_P2;PMS_P1;PMS_P2;Temp;Humidity;BMP_temperature;BMP_pressure;BME280_temperature;BME280_humidity;BME280_pressure;Samples;Min_cycle;Max_cycle;Signal;HPM_P1;HPM_P2
2021/10/13 00:01:52;;;;;;;13.90;10.20;;;;;;;5.85;100.00;92735.75;5032071;28;20045;-82
2021/10/13 00:04:19;;;;;;;16.92;12.00;;;;;;;5.93;100.00;92739.88;5032119;28;20053;-82
2021/10/13 00:06:46;;;;;;;14.07;11.20;;;;;;;5.86;100.00;92734.75;5032304;28;20119;-83
2021/10/13 00:09:14;;;;;;;16.02;12.10;;;;;;;6.00;100.00;92736.38;5031961;28;20489;-83
2021/10/13 00:11:42;;;;;;;15.88;11.32;;;;;;;5.96;100.00;92722.44;5032297;28;20053;-83
2021/10/13 00:14:09;;;;;;;14.25;10.35;;;;;;;6.19;100.00;92733.28;5032380;28;20049;-82
2021/10/13 00:16:36;;;;;;;18.02;11.52;;;;;;;6.26;100.00;92714.47;5032164;28;20045;-83
2021/10/13 00:19:03;;;;;;;18.80;13.38;;;;;;;6.44;100.00;92714.88;5031872;28;20045;-83
2021/10/13 00:21:30;;;;;;;19.65;13.55;;;;;;;6.52;100.00;92727.41;5031757;28;20053;-83
2021/10/13 00:23:57;;;;;;;15.93;11.90;;;;;;;6.63;100.00;92723.50;5031885;28;20073;-83
2021/10/13 00:26:25;;;;;;;16.00;12.02;;;;;;;6.56;100.00;92728.59;5031948;28;20049;-83
2021/10/13 00:28:52;;;;;;;17.15;12.38;;;;;;;6.59;100.00;92720.56;5031605;28;20053;-82
2021/10/13 00:31:19;;;;;;;16.63;12.20;;;;;;;6.52;100.00;92719.78;5031758;28;20061;-83
2021/10/13 00:33:46;;;;;;;19.42;12.55;;;;;;;6.39;100.00;92716.25;5031495;28;20091;-83
2021/10/13 00:36:12;;;;;;;18.77;13.27;;;;;;;6.26;100.00;92708.59;5031148;28;20049;-83
2021/10/13 00:38:39;;;;;;;17.58;11.85;;;;;;;6.28;100.00;92704.06;5031230;28;20052;-83
2021/10/13 00:41:06;;;;;;;16.98;11.93;;;;;;;6.15;100.00;92703.09;5031740;28;20049;-83
2021/10/13 00:43:34;;;;;;;18.58;13.40;;;;;;;6.12;100.00;92700.13;5031313;28;20045;-83
2021/10/13 00:46:01;;;;;;;19.30;13.93;;;;;;;6.14;100.00;92696.41;5031962;28;20103;-83
2021/10/13 00:48:28;;;;;;;18.58;13.75;;;;;;;6.21;100.00;92691.31;5032037;28;20057;-83
2021/10/13 00:50:55;;;;;;;21.23;14.57;;;;;;;6.11;100.00;92686.59;5031510;28;20057;-83
2021/10/13 00:53:24;;;;;;;19.02;14.00;;;;;;;5.95;100.00;92669.09;5031048;28;20052;-83
2021/10/13 00:55:52;;;;;;;19.33;13.95;;;;;;;5.91;100.00;92655.16;5031288;28;20132;-84
2021/10/13 00:58:19;;;;;;;19.02;14.30;;;;;;;6.34;100.00;92694.88;5030852;28;20045;-84
2021/10/13 01:00:51;;;;;;;19.98;13.93;;;;;;;6.49;100.00;92699.75;5031330;28;20056;-88
2021/10/13 01:03:26;;;;;;;16.73;12.48;;;;;;;6.11;100.00;92624.63;5031119;28;20041;-87
2021/10/13 01:06:07;;;;;;;17.08;12.80;;;;;;;6.59;100.00;92687.41;5030943;28;20055;-88
2021/10/13 01:08:42;;;;;;;16.98;12.40;;;;;;;6.58;100.00;92683.28;5031122;28;20053;-89
2021/10/13 01:11:25;;;;;;;17.35;13.13;;;;;;;6.58;100.00;92677.38;5031098;28;20052;-89
2021/10/13 01:14:03;;;;;;;16.88;12.88;;;;;;;6.59;100.00;92671.28;5031025;28;20444;-88
2021/10/13 01:16:42;;;;;;;18.02;13.80;;;;;;;6.81;100.00;92684.63;5031312;28;20131;-88
2021/10/13 01:19:20;;;;;;;21.10;15.93;;;;;;;6.95;100.00;92690.50;5030821;28;20057;-88
2021/10/13 01:22:01;;;;;;;17.40;13.57;;;;;;;6.93;100.00;92674.56;5030848;28;20052;-88
2021/10/13 01:24:35;;;;;;;18.65;13.88;;;;;;;7.06;100.00;92689.06;5030593;28;20053;-88
2021/10/13 01:27:31;;;;;;;17.63;12.85;;;;;;;7.05;100.00;92687.50;5030781;28;20059;-88
2021/10/13 01:30:01;;;;;;;16.65;12.32;;;;;;;6.79;100.00;92645.72;5030425;28;20057;-88
2021/10/13 01:32:30;;;;;;;16.30;12.75;;;;;;;7.18;100.00;92691.81;5030798;28;20096;-88
2021/10/13 01:35:01;;;;;;;17.05;12.10;;;;;;;6.70;100.00;92604.31;5030716;28;20050;-88
2021/10/13 01:37:31;;;;;;;17.35;12.00;;;;;;;7.13;100.00;92686.50;5030675;28;20049;-87
2021/10/13 01:40:01;;;;;;;16.23;12.80;;;;;;;6.68;100.00;92608.84;5030134;28;20072;-87
2021/10/13 01:42:34;;;;;;;15.25;11.23;;;;;;;6.65;100.00;92619.44;5030102;28;20447;-88
2021/10/13 01:45:02;;;;;;;14.82;10.25;;;;;;;6.85;100.00;92678.13;5030129;28;20049;-88
2021/10/13 01:47:32;;;;;;;16.30;11.98;;;;;;;6.42;100.00;92600.25;5029586;28;20057;-88
2021/10/13 01:50:02;;;;;;;16.38;11.82;;;;;;;7.06;100.00;92682.22;5030068;28;20140;-88
2021/10/13 01:52:30;;;;;;;15.35;11.50;;;;;;;7.11;100.00;92689.25;5030341;28;20046;-88
2021/10/13 01:54:59;;;;;;;17.77;13.20;;;;;;;6.78;100.00;92639.06;5030179;28;20053;-88
2021/10/13 01:57:29;;;;;;;17.08;12.07;;;;;;;7.16;100.00;92698.88;5030294;28;20053;-87
2021/10/13 02:00:01;;;;;;;15.90;12.40;;;;;;;6.94;100.00;92681.25;5029810;28;20061;-87
2021/10/13 02:02:29;;;;;;;18.67;12.02;;;;;;;6.97;100.00;92664.72;5029006;28;20060;-87
2021/10/13 02:04:57;;;;;;;17.42;12.77;;;;;;;6.93;100.00;92669.47;5029859;28;20492;-86
2021/10/13 02:07:26;;;;;;;17.92;12.52;;;;;;;7.02;100.00;92691.25;5029907;28;20436;-87
2021/10/13 02:09:55;;;;;;;18.98;12.23;;;;;;;6.76;100.00;92677.53;5029961;28;20068;-86
2021/10/13 02:12:24;;;;;;;17.70;12.40;;;;;;;6.44;100.00;92640.88;5029671;28;20056;-89
2021/10/13 02:14:53;;;;;;;18.23;12.38;;;;;;;6.36;100.00;92619.72;5029956;28;20145;-89
2021/10/13 02:17:23;;;;;;;17.10;12.55;;;;;;;6.41;100.00;92627.56;5029728;28;20091;-88
2021/10/13 02:19:53;;;;;;;16.50;11.50;;;;;;;6.43;100.00;92624.00;5029828;28;20061;-89
2021/10/13 02:22:21;;;;;;;17.48;12.13;;;;;;;6.79;100.00;92681.47;5029594;28;20042;-89
2021/10/13 02:24:50;;;;;;;18.48;12.25;;;;;;;6.19;100.00;92621.06;5029339;28;20081;-90
2021/10/13 02:27:23;;;;;;;21.88;13.07;;;;;;;6.59;100.00;92678.94;5029828;28;20503;-90
2021/10/13 02:29:51;;;;;;;20.02;13.50;;;;;;;6.06;100.00;92607.34;5029148;28;20059;-90
2021/10/13 02:32:19;;;;;;;20.80;13.90;;;;;;;5.93;100.00;92604.78;5029397;28;20432;-90
2021/10/13 02:34:49;;;;;;;19.85;13.90;;;;;;;5.68;100.00;92580.66;5029359;28;20052;-89
2021/10/13 02:37:16;;;;;;;20.98;13.90;;;;;;;6.07;100.00;92616.56;5029365;28;20050;-90
2021/10/13 02:39:43;;;;;;;21.08;14.13;;;;;;;6.49;100.00;92690.31;5029490;28;20041;-89
2021/10/13 02:42:10;;;;;;;19.83;14.13;;;;;;;6.17;100.00;92638.34;5029504;28;20564;-89
2021/10/13 02:44:38;;;;;;;22.20;14.40;;;;;;;5.82;100.00;92604.38;5029207;28;20057;-90
2021/10/13 02:47:10;;;;;;;19.50;14.25;;;;;;;6.11;100.00;92663.66;5029008;28;20041;-89
2021/10/13 02:49:45;;;;;;;20.95;13.82;;;;;;;6.28;100.00;92689.56;5029135;28;20069;-89
2021/10/13 02:52:21;;;;;;;19.98;14.23;;;;;;;5.67;100.00;92627.50;5029446;28;20050;-89
2021/10/13 02:54:55;;;;;;;20.65;14.73;;;;;;;6.38;100.00;92717.22;5029156;28;20053;-89
2021/10/13 02:57:24;;;;;;;21.08;14.35;;;;;;;5.97;100.00;92662.81;5029198;28;20136;-89
2021/10/13 02:59:53;;;;;;;21.88;15.07;;;;;;;6.40;100.00;92728.00;5031485;28;20052;-87
2021/10/13 03:02:26;;;;;;;20.80;14.90;;;;;;;6.04;100.00;92677.38;5032820;28;20455;-87
2021/10/13 03:04:58;;;;;;;23.15;16.15;;;;;;;6.36;100.00;92708.19;5033470;28;20141;-88
2021/10/13 03:07:30;;;;;;;21.48;14.60;;;;;;;6.33;100.00;92717.03;5033363;28;20065;-87
2021/10/13 03:09:59;;;;;;;21.30;14.93;;;;;;;6.19;100.00;92726.44;5033374;28;20119;-86
2021/10/13 03:12:30;;;;;;;24.05;14.85;;;;;;;5.72;100.00;92654.94;5033021;28;20452;-86
2021/10/13 03:15:00;;;;;;;21.73;15.02;;;;;;;5.91;100.00;92691.63;5032946;28;20140;-86
2021/10/13 03:17:29;;;;;;;21.30;14.10;;;;;;;6.02;100.00;92736.19;5033291;28;20049;-86
2021/10/13 03:19:57;;;;;;;20.25;15.00;;;;;;;5.81;100.00;92709.88;5032898;28;20417;-86
2021/10/13 03:22:27;;;;;;;21.52;15.48;;;;;;;6.07;100.00;92733.84;5032852;28;20096;-86
2021/10/13 03:24:54;;;;;;;26.48;17.02;;;;;;;6.05;100.00;92722.28;5033079;28;20060;-86
2021/10/13 03:27:25;;;;;;;24.15;16.10;;;;;;;5.87;100.00;92728.69;5032852;28;20416;-86
2021/10/13 03:29:52;;;;;;;23.08;16.55;;;;;;;5.96;100.00;92739.50;5033030;28;20639;-87
2021/10/13 03:32:19;;;;;;;22.83;15.95;;;;;;;5.56;100.00;92712.91;5032579;28;20053;-87
2021/10/13 03:34:46;;;;;;;23.95;15.63;;;;;;;5.09;100.00;92666.88;5033027;28;20053;-86
2021/10/13 03:37:15;;;;;;;20.67;15.30;;;;;;;5.51;100.00;92722.13;5032741;28;20385;-86
2021/10/13 03:39:43;;;;;;;25.48;15.70;;;;;;;5.51;100.00;92745.81;5032570;28;20050;-86
2021/10/13 03:42:11;;;;;;;20.33;15.48;;;;;;;5.46;100.00;92751.47;5032660;28;20046;-85
2021/10/13 03:44:38;;;;;;;21.80;15.65;;;;;;;5.45;100.00;92755.00;5032595;28;20046;-86
2021/10/13 03:47:05;;;;;;;24.45;15.63;;;;;;;5.43;100.00;92740.88;5032513;28;20053;-86
2021/10/13 03:49:33;;;;;;;20.27;14.93;;;;;;;5.35;100.00;92731.66;5032180;28;20095;-86
2021/10/13 03:51:59;;;;;;;22.77;15.70;;;;;;;5.39;100.00;92748.13;5032061;28;20587;-86
2021/10/13 03:54:26;;;;;;;22.45;15.23;;;;;;;5.41;100.00;92758.13;5032549;28;20639;-85
2021/10/13 03:56:55;;;;;;;20.30;14.05;;;;;;;5.37;100.00;92754.38;5032110;28;20050;-85
2021/10/13 03:59:21;;;;;;;22.35;15.73;;;;;;;5.51;100.00;92763.66;5032040;28;20489;-85
2021/10/13 04:01:49;;;;;;;21.55;16.17;;;;;;;5.60;100.00;92770.16;5032359;28;20057;-85
2021/10/13 04:04:16;;;;;;;22.13;14.20;;;;;;;5.48;100.00;92772.44;5032332;28;20049;-85
2021/10/13 04:06:42;;;;;;;21.35;15.60;;;;;;;5.56;100.00;92768.97;5032010;28;20045;-85
2021/10/13 04:09:09;;;;;;;21.42;16.08;;;;;;;5.62;100.00;92773.28;5032234;28;20060;-85
2021/10/13 04:11:36;;;;;;;23.90;16.33;;;;;;;5.40;100.00;92748.91;5030787;28;20096;-85
2021/10/13 04:14:04;;;;;;;21.13;15.77;;;;;;;5.77;100.00;92764.75;5031788;28;20501;-85
2021/10/13 04:16:31;;;;;;;23.20;17.58;;;;;;;5.50;100.00;92718.00;5031866;28;20050;-86
2021/10/13 04:18:58;;;;;;;22.65;16.65;;;;;;;5.68;100.00;92746.28;5031842;28;20045;-85
2021/10/13 04:21:24;;;;;;;23.83;16.27;;;;;;;6.03;100.00;92780.34;5032096;28;20487;-85
2021/10/13 04:23:51;;;;;;;24.60;17.15;;;;;;;6.01;100.00;92780.50;5031787;28;21057;-85
2021/10/13 04:26:18;;;;;;;20.10;13.75;;;;;;;5.61;100.00;92755.66;5031719;28;20530;-85
2021/10/13 04:28:46;;;;;;;22.50;16.42;;;;;;;5.86;100.00;92789.09;5031863;28;20049;-85
2021/10/13 04:31:15;;;;;;;24.85;17.58;;;;;;;5.85;100.00;92776.53;5031950;28;20057;-85
2021/10/13 04:33:41;;;;;;;25.63;17.40;;;;;;;5.94;100.00;92775.41;5031896;28;20052;-85
2021/10/13 04:36:08;;;;;;;23.70;14.75;;;;;;;5.99;100.00;92787.56;5031719;28;20041;-85
2021/10/13 04:38:35;;;;;;;24.83;15.60;;;;;;;5.93;100.00;92785.78;5031313;28;20561;-85
2021/10/13 04:41:02;;;;;;;20.95;15.00;;;;;;;5.73;100.00;92751.59;5031216;28;20103;-85
2021/10/13 04:43:29;;;;;;;24.42;16.20;;;;;;;5.97;100.00;92797.16;5031809;28;20095;-85
2021/10/13 04:45:56;;;;;;;27.30;18.15;;;;;;;5.89;100.00;92800.66;5031114;28;20493;-85
2021/10/13 04:48:24;;;;;;;29.40;18.75;;;;;;;6.00;100.00;92809.53;5031090;28;20060;-85
2021/10/13 04:50:51;;;;;;;29.60;19.40;;;;;;;6.09;100.00;92807.63;5031308;28;20052;-84
2021/10/13 04:53:17;;;;;;;28.17;19.65;;;;;;;6.15;100.00;92815.28;5031334;28;20045;-87
2021/10/13 04:55:44;;;;;;;25.85;19.17;;;;;;;6.09;100.00;92810.97;5031398;28;20084;-86
2021/10/13 04:58:11;;;;;;;33.50;24.23;;;;;;;6.17;100.00;92827.84;5031235;28;20128;-85
2021/10/13 05:00:38;;;;;;;28.50;20.73;;;;;;;5.88;100.00;92792.22;5031297;28;20053;-85
2021/10/13 05:03:05;;;;;;;22.20;15.77;;;;;;;6.07;100.00;92829.97;5030909;28;20589;-85
2021/10/13 05:05:33;;;;;;;29.58;19.75;;;;;;;6.04;100.00;92832.91;5031010;28;20095;-85
2021/10/13 05:08:00;;;;;;;24.92;17.77;;;;;;;5.74;100.00;92770.22;5030981;28;20042;-85
2021/10/13 05:10:27;;;;;;;22.80;16.40;;;;;;;6.12;100.00;92822.53;5030787;28;20091;-85
2021/10/13 05:12:54;;;;;;;24.40;17.55;;;;;;;6.26;100.00;92839.44;5030881;28;20045;-85
2021/10/13 05:15:21;;;;;;;28.98;18.65;;;;;;;6.27;100.00;92845.34;5030988;28;20049;-84
2021/10/13 05:17:48;;;;;;;25.48;18.00;;;;;;;6.32;100.00;92849.84;5031011;28;20045;-84
2021/10/13 05:20:15;;;;;;;27.40;19.23;;;;;;;6.33;100.00;92849.66;5030716;28;20049;-84
2021/10/13 05:22:43;;;;;;;25.30;16.27;;;;;;;6.27;100.00;92848.69;5030505;28;20061;-84
2021/10/13 05:25:10;;;;;;;25.55;17.92;;;;;;;6.30;100.00;92842.41;5030678;28;20061;-84
2021/10/13 05:27:37;;;;;;;26.60;18.27;;;;;;;6.38;100.00;92854.97;5030994;28;20412;-85
2021/10/13 05:30:04;;;;;;;26.75;18.75;;;;;;;6.46;100.00;92858.34;5030385;28;20057;-85
2021/10/13 05:32:31;;;;;;;27.15;18.42;;;;;;;6.49;100.00;92855.41;5030626;28;20053;-85
2021/10/13 05:34:58;;;;;;;25.00;18.35;;;;;;;6.52;100.00;92855.00;5030410;28;20053;-85
2021/10/13 05:37:25;;;;;;;25.73;17.10;;;;;;;6.50;100.00;92854.41;5030266;28;20053;-85
2021/10/13 05:39:53;;;;;;;25.35;18.58;;;;;;;5.93;100.00;92791.66;5030617;28;20045;-85
2021/10/13 05:42:20;;;;;;;34.70;22.23;;;;;;;6.39;100.00;92845.56;5030289;28;20045;-85
2021/10/13 05:44:47;;;;;;;33.80;19.30;;;;;;;6.53;100.00;92842.06;5030369;28;20455;-84
2021/10/13 05:47:13;;;;;;;32.75;21.63;;;;;;;6.65;100.00;92851.69;5030457;28;20124;-85
2021/10/13 05:49:41;;;;;;;30.38;20.52;;;;;;;6.55;100.00;92867.38;5029844;28;20051;-84
2021/10/13 05:52:08;;;;;;;29.35;21.13;;;;;;;6.52;100.00;92872.88;5029977;28;20496;-85
2021/10/13 05:54:35;;;;;;;24.73;18.05;;;;;;;6.64;100.00;92870.53;5030324;28;20438;-82
2021/10/13 05:57:03;;;;;;;22.45;16.35;;;;;;;6.31;100.00;92861.84;5029783;28;20449;-82
2021/10/13 05:59:30;;;;;;;22.77;17.00;;;;;;;6.28;100.00;92867.31;5030326;28;20135;-82
2021/10/13 06:01:57;;;;;;;21.15;15.43;;;;;;;6.23;100.00;92888.31;5029812;28;20045;-83
2021/10/13 06:04:24;;;;;;;22.20;15.90;;;;;;;6.36;100.00;92885.00;5030084;28;20045;-83
2021/10/13 06:06:50;;;;;;;23.77;15.43;;;;;;;6.43;100.00;92889.34;5029698;28;20064;-83
2021/10/13 06:09:17;;;;;;;20.70;14.88;;;;;;;6.31;100.00;92856.75;5025384;28;20123;-83
2021/10/13 06:11:44;;;;;;;21.55;15.40;;;;;;;6.76;100.00;92901.41;5028903;28;20076;-83
2021/10/13 06:14:12;;;;;;;25.23;17.13;;;;;;;6.85;100.00;92886.69;5030525;28;20049;-83
2021/10/13 06:16:39;;;;;;;23.33;16.15;;;;;;;7.17;100.00;92894.59;5029754;28;20467;-83
2021/10/13 06:19:06;;;;;;;16.23;11.45;;;;;;;6.97;100.00;92886.88;5029871;28;20536;-83
2021/10/13 06:21:35;;;;;;;19.17;14.05;;;;;;;6.94;100.00;92891.41;5029511;28;20508;-83
2021/10/13 06:24:02;;;;;;;27.52;15.60;;;;;;;7.35;100.00;92906.75;5029198;28;20057;-83
2021/10/13 06:26:29;;;;;;;17.65;12.55;;;;;;;7.47;100.00;92919.72;5029895;28;20048;-83
2021/10/13 06:28:56;;;;;;;30.38;19.95;;;;;;;7.63;100.00;92913.41;5029753;28;20049;-84
2021/10/13 06:31:25;;;;;;;16.75;12.63;;;;;;;7.44;100.00;92918.34;5029577;28;20053;-83
2021/10/13 06:33:52;;;;;;;19.95;13.73;;;;;;;7.42;100.00;92899.09;5029303;28;20057;-82
2021/10/13 06:36:21;;;;;;;14.57;10.77;;;;;;;7.41;99.49;92925.63;5029666;28;20065;-82
2021/10/13 06:38:48;;;;;;;14.85;11.02;;;;;;;7.43;100.00;92924.44;5029599;28;20076;-83
2021/10/13 06:41:15;;;;;;;24.13;15.35;;;;;;;7.37;100.00;92886.91;5029211;28;20493;-83
2021/10/13 06:43:42;;;;;;;19.63;12.68;;;;;;;7.76;100.00;92917.72;5027798;28;20054;-83
2021/10/13 06:46:09;;;;;;;19.50;12.52;;;;;;;7.85;100.00;92902.97;5028936;28;20412;-82
2021/10/13 06:48:38;;;;;;;16.10;11.30;;;;;;;8.03;100.00;92904.91;5029349;28;20068;-83
2021/10/13 06:51:04;;;;;;;16.70;11.52;;;;;;;8.00;97.51;92921.44;5029158;28;20056;-82
2021/10/13 06:53:31;;;;;;;16.45;11.77;;;;;;;8.09;100.00;92910.97;5029270;28;20050;-82
2021/10/13 06:55:58;;;;;;;27.17;21.42;;;;;;;8.36;100.00;92910.88;5029418;28;20239;-83
2021/10/13 06:58:25;;;;;;;17.15;12.75;;;;;;;8.54;100.00;92916.16;5028962;28;20046;-83
2021/10/13 07:00:52;;;;;;;16.45;11.55;;;;;;;8.45;97.14;92929.34;5029345;28;20045;-83
2021/10/13 07:03:19;;;;;;;17.13;12.80;;;;;;;8.06;97.31;92922.38;5029263;28;20494;-84
2021/10/13 07:05:47;;;;;;;15.23;12.00;;;;;;;8.02;96.16;92934.03;5028845;28;20528;-82
2021/10/13 07:08:14;;;;;;;17.08;12.90;;;;;;;8.22;100.00;92926.28;5029183;28;20099;-83
2021/10/13 07:10:41;;;;;;;19.85;13.85;;;;;;;8.48;100.00;92916.16;5028791;28;20141;-83
2021/10/13 07:13:08;;;;;;;22.10;15.20;;;;;;;8.70;100.00;92926.91;5029124;28;20049;-83
2021/10/13 07:15:34;;;;;;;17.42;11.43;;;;;;;8.85;99.87;92934.34;5028719;28;20042;-83
2021/10/13 07:18:02;;;;;;;15.32;11.07;;;;;;;8.99;95.89;92942.72;5029035;28;20049;-83
2021/10/13 07:20:29;;;;;;;17.42;13.50;;;;;;;9.09;98.50;92932.78;5028922;28;20551;-83
2021/10/13 07:22:58;;;;;;;15.65;12.20;;;;;;;9.19;98.80;92937.47;5029060;28;20041;-83
2021/10/13 07:25:26;;;;;;;24.13;15.25;;;;;;;8.95;96.54;92916.72;5029299;28;20387;-83
2021/10/13 07:27:53;;;;;;;14.35;10.82;;;;;;;8.90;91.59;92926.03;5028636;28;20045;-83
2021/10/13 07:30:24;;;;;;;16.75;11.93;;;;;;;8.27;94.31;92926.47;5028973;28;20054;-84
2021/10/13 07:32:51;;;;;;;14.10;10.48;;;;;;;7.88;95.64;92948.59;5028744;28;20058;-83
2021/10/13 07:35:18;;;;;;;15.48;11.57;;;;;;;7.79;96.94;92926.78;5028683;28;20053;-83
2021/10/13 07:37:45;;;;;;;20.73;13.43;;;;;;;7.99;99.62;92939.53;5029020;28;20042;-83
2021/10/13 07:40:14;;;;;;;17.45;12.77;;;;;;;8.15;100.00;92920.41;5028773;28;20050;-83
2021/10/13 07:42:41;;;;;;;17.48;13.45;;;;;;;8.40;100.00;92932.53;5028815;28;20053;-83
2021/10/13 07:45:09;;;;;;;16.67;12.48;;;;;;;8.02;95.62;92926.34;5029638;28;20103;-83
2021/10/13 07:47:36;;;;;;;19.40;13.57;;;;;;;8.37;100.00;92922.69;5032364;28;20519;-83
2021/10/13 07:50:04;;;;;;;16.65;11.73;;;;;;;8.45;99.44;92917.34;5032242;28;20488;-83
2021/10/13 07:52:31;;;;;;;20.35;15.52;;;;;;;8.72;100.00;92924.94;5032521;28;20118;-83
2021/10/13 07:54:58;;;;;;;21.38;13.40;;;;;;;8.88;96.08;92928.78;5032260;28;20523;-83
2021/10/13 07:57:26;;;;;;;19.98;13.27;;;;;;;9.14;100.00;92926.28;5032204;28;20099;-83
2021/10/13 07:59:53;;;;;;;20.85;14.68;;;;;;;9.16;100.00;92916.63;5032163;28;20493;-83
2021/10/13 08:02:20;;;;;;;17.60;11.90;;;;;;;9.51;98.85;92934.09;5032336;28;20053;-83
2021/10/13 08:04:47;;;;;;;18.33;12.85;;;;;;;9.61;96.17;92936.97;5032369;28;20049;-82
2021/10/13 08:07:13;;;;;;;15.65;11.73;;;;;;;9.92;98.60;92938.88;5032112;28;20056;-83
2021/10/13 08:09:40;;;;;;;18.67;11.98;;;;;;;10.11;98.33;92939.69;5032145;28;20045;-82
2021/10/13 08:12:07;;;;;;;17.70;12.13;;;;;;;9.93;93.77;92940.44;5031979;28;20140;-82
2021/10/13 08:14:35;;;;;;;19.38;12.90;;;;;;;9.80;93.39;92944.69;5029143;28;20409;-83
2021/10/13 08:17:02;;;;;;;18.80;12.38;;;;;;;9.66;93.58;92918.38;5030105;28;20041;-82
2021/10/13 08:19:30;;;;;;;15.07;11.02;;;;;;;9.61;92.90;92954.94;5031118;28;20393;-83
2021/10/13 08:21:57;;;;;;;16.48;11.80;;;;;;;9.17;94.33;92954.81;5031656;28;20555;-83
2021/10/13 08:24:24;;;;;;;16.58;11.13;;;;;;;8.75;95.33;92947.56;5031495;28;20060;-83
2021/10/13 08:26:50;;;;;;;20.35;14.00;;;;;;;7.96;95.69;92893.91;5031538;28;20041;-82
2021/10/13 08:29:17;;;;;;;17.13;11.93;;;;;;;8.32;94.96;92946.34;5031438;28;20850;-82
2021/10/13 08:31:45;;;;;;;19.05;13.13;;;;;;;8.42;98.61;92948.44;5031462;28;20049;-82
2021/10/13 08:34:12;;;;;;;16.83;11.13;;;;;;;8.23;97.76;92942.41;5031639;28;20053;-82
2021/10/13 08:36:39;;;;;;;16.83;9.98;;;;;;;7.99;98.49;92937.75;5031558;28;20073;-83
2021/10/13 08:39:06;;;;;;;17.05;11.13;;;;;;;7.91;99.05;92948.19;5031494;28;20046;-82
2021/10/13 08:41:33;;;;;;;16.50;11.10;;;;;;;8.04;100.00;92952.50;5031314;28;20061;-82
2021/10/13 08:44:00;;;;;;;15.50;10.90;;;;;;;8.34;100.00;92946.91;5031190;28;20046;-82
2021/10/13 08:46:26;;;;;;;16.25;11.70;;;;;;;8.58;96.99;92956.69;5031052;28;20052;-83
2021/10/13 08:48:55;;;;;;;15.50;11.27;;;;;;;8.88;100.00;92944.16;5032077;28;20072;-82
2021/10/13 08:51:22;;;;;;;14.13;9.75;;;;;;;9.12;96.33;92952.09;5031565;28;20053;-83
2021/10/13 08:53:49;;;;;;;12.57;9.00;;;;;;;9.22;94.24;92936.28;5031954;28;20046;-83
2021/10/13 08:56:15;;;;;;;14.45;10.32;;;;;;;9.55;92.32;92966.03;5031275;28;20524;-83
2021/10/13 08:58:43;;;;;;;15.07;10.25;;;;;;;9.82;97.09;92965.00;5031043;28;20073;-83
2021/10/13 09:01:13;;;;;;;26.85;17.88;;;;;;;10.01;95.90;92964.03;5030967;28;20515;-83
2021/10/13 09:03:44;;;;;;;16.00;12.05;;;;;;;10.26;94.35;92967.56;5030867;28;20046;-83
2021/10/13 09:06:21;;;;;;;13.48;8.75;;;;;;;9.76;89.99;92943.53;5031377;28;20046;-83
2021/10/13 09:08:59;;;;;;;14.23;9.60;;;;;;;9.51;90.94;92957.16;5031254;28;20063;-83
2021/10/13 09:11:38;;;;;;;16.25;10.55;;;;;;;9.85;91.94;92956.88;5031020;28;20049;-83
2021/10/13 09:14:13;;;;;;;15.30;10.10;;;;;;;9.97;94.60;92918.50;5031151;28;20045;-83
2021/10/13 09:16:56;;;;;;;15.10;10.13;;;;;;;10.33;89.59;92960.59;5031013;28;20122;-83
2021/10/13 09:19:25;;;;;;;14.90;9.07;;;;;;;9.53;86.08;92949.28;5030531;28;20056;-83
2021/10/13 09:21:55;;;;;;;10.32;7.50;;;;;;;9.57;85.57;92969.16;5030697;28;20535;-83
2021/10/13 09:24:25;;;;;;;12.05;7.70;;;;;;;9.65;82.01;92949.38;5030427;28;20052;-83
2021/10/13 09:26:52;;;;;;;15.05;9.20;;;;;;;10.07;88.43;92952.16;5030565;28;20060;-83
2021/10/13 09:29:19;;;;;;;15.18;8.05;;;;;;;10.50;89.81;92962.59;5030276;28;20053;-83
2021/10/13 09:31:55;;;;;;;12.85;9.02;;;;;;;10.39;86.52;92931.50;5030731;28;20064;-83
2021/10/13 09:34:22;;;;;;;13.48;9.27;;;;;;;10.82;86.87;92967.56;5046481;28;20049;-83
2021/10/13 09:36:58;;;;;;;11.80;8.07;;;;;;;10.92;86.00;92961.94;5041957;28;20079;-83
2021/10/13 09:39:28;;;;;;;13.85;9.43;;;;;;;10.93;87.79;92927.50;5041123;28;20056;-83
2021/10/13 09:42:04;;;;;;;15.55;11.68;;;;;;;11.33;89.97;92954.44;5039806;28;20133;-84
2021/10/13 09:44:34;;;;;;;20.85;12.20;;;;;;;11.49;88.84;92960.75;5037148;28;20045;-83
2021/10/13 09:47:04;;;;;;;14.27;9.85;;;;;;;11.67;87.64;92951.38;5038465;28;20186;-83
2021/10/13 09:49:34;;;;;;;12.43;8.95;;;;;;;11.92;83.69;92963.22;5030661;28;20045;-83
2021/10/13 09:52:09;;;;;;;10.25;7.50;;;;;;;11.06;78.21;92955.59;5030207;28;20049;-83
2021/10/13 09:54:38;;;;;;;13.35;8.40;;;;;;;10.92;82.77;92977.34;5030367;28;20045;-83
2021/10/13 09:57:23;;;;;;;10.23;7.55;;;;;;;11.09;81.16;92973.16;5030378;28;20054;-83
2021/10/13 09:59:59;;;;;;;18.90;8.18;;;;;;;11.05;80.33;92976.38;5029244;28;20045;-83
2021/10/13 10:02:30;;;;;;;10.80;6.40;;;;;;;10.43;74.61;92984.00;5029895;28;20050;-83
2021/10/13 10:05:00;;;;;;;9.52;6.55;;;;;;;10.50;80.11;92971.09;5029815;28;20042;-83
2021/10/13 10:07:27;;;;;;;13.73;8.35;;;;;;;10.55;81.42;92962.72;5029727;28;20132;-83
2021/10/13 10:10:11;;;;;;;8.90;6.30;;;;;;;10.37;80.97;92948.88;5041626;28;20048;-83
2021/10/13 10:12:57;;;;;;;10.02;6.55;;;;;;;10.68;80.05;92983.16;5049859;28;20049;-83
2021/10/13 10:15:29;;;;;;;12.40;7.07;;;;;;;10.49;82.08;92972.09;5034893;28;20049;-83
2021/10/13 10:17:56;;;;;;;12.25;6.82;;;;;;;10.69;83.19;92982.13;5029929;28;20385;-83
2021/10/13 10:20:38;;;;;;;9.27;7.00;;;;;;;10.61;80.52;92987.59;5029460;28;20053;-83
2021/10/13 10:23:32;;;;;;;11.48;6.72;;;;;;;10.52;83.00;92974.22;5029473;28;20045;-83
2021/10/13 10:26:21;;;;;;;10.65;7.07;;;;;;;10.63;83.05;92977.06;5029510;28;20054;-83
2021/10/13 10:28:53;;;;;;;13.00;7.50;;;;;;;10.59;83.28;92974.16;5029646;28;20056;-83
2021/10/13 10:31:45;;;;;;;11.35;8.27;;;;;;;10.13;80.26;92956.44;5029557;28;20053;-83
2021/10/13 10:34:17;;;;;;;10.27;7.20;;;;;;;10.35;84.18;92965.50;4988409;28;20394;-83
2021/10/13 10:37:14;;;;;;;12.70;7.00;;;;;;;9.57;81.94;92966.59;5009090;28;20050;-83
2021/10/13 10:39:56;;;;;;;12.25;6.68;;;;;;;9.51;86.87;92961.50;5010315;28;20400;-83
2021/10/13 10:42:54;;;;;;;9.73;7.25;;;;;;;9.39;85.60;92974.22;5009940;28;20050;-83
2021/10/13 10:45:23;;;;;;;10.95;7.90;;;;;;;9.30;87.18;92953.19;5010221;28;20603;-82
2021/10/13 10:47:56;;;;;;;14.57;9.27;;;;;;;9.39;88.18;92972.44;5009715;28;20050;-83
2021/10/13 10:50:34;;;;;;;15.98;9.93;;;;;;;9.46;88.18;92965.50;5016436;28;20056;-83
2021/10/13 10:53:27;;;;;;;16.20;10.32;;;;;;;9.55;87.46;92963.47;5028883;28;20046;-82
2021/10/13 10:55:54;;;;;;;13.15;8.30;;;;;;;9.68;88.08;92964.34;5029114;28;20111;-82
2021/10/13 10:58:24;;;;;;;11.38;7.82;;;;;;;9.70;85.79;92975.16;5028966;28;20045;-82
2021/10/13 11:01:07;;;;;;;13.15;7.40;;;;;;;9.72;84.90;92973.97;5029373;28;20049;-83
2021/10/13 11:03:37;;;;;;;10.88;6.97;;;;;;;9.67;86.67;92960.22;5029287;28;20056;-83
2021/10/13 11:06:19;;;;;;;9.65;7.07;;;;;;;9.74;84.50;92963.50;5029094;28;20435;-83
2021/10/13 11:08:54;;;;;;;12.57;7.78;;;;;;;9.55;83.14;92942.94;5028957;28;20497;-82
2021/10/13 11:11:22;;;;;;;9.98;7.05;;;;;;;9.33;84.91;92961.25;5028686;28;20049;-82
2021/10/13 11:13:58;;;;;;;10.57;7.30;;;;;;;9.41;83.79;92955.06;5034509;28;20869;-82
2021/10/13 11:16:24;;;;;;;;;;;;;;;9.42;84.08;92966.91;5041227;28;20037;-83
2021/10/13 11:18:51;;;;;;;11.23;7.22;;;;;;;9.25;86.10;92937.66;5036917;28;19925;-83
2021/10/13 11:21:22;;;;;;;12.80;8.57;;;;;;;9.45;87.05;92950.31;5040059;28;20493;-83
2021/10/13 11:23:51;;;;;;;10.32;6.82;;;;;;;9.55;85.41;92953.19;5032016;28;20058;-82
2021/10/13 11:26:31;;;;;;;12.32;7.53;;;;;;;9.59;83.33;92951.00;5032351;28;20049;-83
2021/10/13 11:29:17;;;;;;;14.07;7.60;;;;;;;9.81;85.89;92971.91;5029933;28;20045;-82
2021/10/13 11:31:45;;;;;;;14.88;9.27;;;;;;;9.88;82.96;92971.88;5031010;28;20053;-82
2021/10/13 11:34:13;;;;;;;22.40;10.48;;;;;;;9.87;86.73;92947.22;5043993;28;20056;-82